Time,TemperatureF,DewpointF,PressureIn,WindDirection,WindDirectionDegrees,WindSpeedMPH,WindSpeedGustMPH,Humidity,HourlyPrecipIn,Conditions,Clouds,dailyrainin,SoftwareType,DateUTC
2013-09-25 00:00:00,58.6,57.8,29.83,WNW,286,0.0,0.0,97,0.00,,,0.00,Wunderground v.1.15,2013-09-25 04:00:00,
2013-09-25 00:10:00,58.8,58.2,29.83,WNW,286,0.0,0.0,98,0.00,,,0.00,Wunderground v.1.15,2013-09-25 04:10:00,
2013-09-25 00:20:00,59.0,58.4,29.83,WNW,286,0.0,0.0,98,0.00,,,0.00,Wunderground v.1.15,2013-09-25 04:20:00,
2013-09-25 00:30:00,59.0,58.4,29.82,WNW,286,0.0,0.0,98,0.00,,,0.00,Wunderground v.1.15,2013-09-25 04:30:00,
2013-09-25 00:40:00,58.8,58.2,29.82,WNW,286,0.0,0.0,98,0.00,,,0.00,Wunderground v.1.15,2013-09-25 04:40:00,
2013-09-25 00:50:00,58.5,57.9,29.82,WNW,286,0.0,0.0,98,0.00,,,0.00,Wunderground v.1.15,2013-09-25 04:50:00,
2013-09-25 01:00:00,58.3,57.7,29.82,WNW,286,0.0,0.0,98,0.00,,,0.00,Wunderground v.1.15,2013-09-25 05:00:00,
2013-09-25 01:10:00,58.0,57.4,29.82,WNW,286,0.0,0.0,98,0.00,,,0.00,Wunderground v.1.15,2013-09-25 05:10:00,
2013-09-25 01:20:00,57.9,57.3,29.81,WNW,286,0.0,0.0,98,0.00,,,0.00,Wunderground v.1.15,2013-09-25 05:20:00,
2013-09-25 01:30:00,57.6,57.0,29.81,WNW,286,0.0,0.0,98,0.00,,,0.00,Wunderground v.1.15,2013-09-25 05:30:00,
2013-09-25 01:40:00,57.4,56.8,29.81,WNW,286,0.0,0.0,98,0.00,,,0.00,Wunderground v.1.15,2013-09-25 05:40:00,
2013-09-25 01:50:00,57.1,56.5,29.81,WNW,286,0.0,0.0,98,0.00,,,0.00,Wunderground v.1.15,2013-09-25 05:50:00,
2013-09-25 02:00:00,56.9,56.3,29.81,WNW,286,0.0,0.0,98,0.00,,,0.00,Wunderground v.1.15,2013-09-25 06:00:00,
2013-09-25 02:10:00,56.8,56.2,29.81,WNW,286,0.0,0.0,98,0.00,,,0.00,Wunderground v.1.15,2013-09-25 06:10:00,
2013-09-25 02:20:00,56.6,56.0,29.81,WNW,286,0.0,0.0,98,0.00,,,0.00,Wunderground v.1.15,2013-09-25 06:20:00,
2013-09-25 02:30:00,56.4,55.8,29.80,WNW,286,0.0,0.0,98,0.00,,,0.00,Wunderground v.1.15,2013-09-25 06:30:00,
2013-09-25 02:40:00,56.3,55.7,29.80,WNW,286,0.0,0.0,98,0.00,,,0.00,Wunderground v.1.15,2013-09-25 06:40:00,
2013-09-25 02:50:00,56.2,55.6,29.80,WNW,286,0.0,0.0,98,0.00,,,0.00,Wunderground v.1.15,2013-09-25 06:50:00,
2013-09-25 03:00:00,56.1,55.5,29.80,WNW,286,0.0,0.0,98,0.00,,,0.00,Wunderground v.1.15,2013-09-25 07:00:00,
2013-09-25 03:10:00,56.1,55.5,29.79,WNW,286,0.0,0.0,98,0.00,,,0.00,Wunderground v.1.15,2013-09-25 07:10:00,
2013-09-25 03:20:00,56.0,55.4,29.79,WNW,286,0.0,0.0,98,0.00,,,0.00,Wunderground v.1.15,2013-09-25 07:20:00,
2013-09-25 03:30:00,56.0,55.4,29.78,WNW,286,0.0,0.0,98,0.00,,,0.00,Wunderground v.1.15,2013-09-25 07:30:00,
2013-09-25 03:40:00,55.9,55.3,29.78,WNW,286,0.0,0.0,98,0.00,,,0.00,Wunderground v.1.15,2013-09-25 07:40:00,
2013-09-25 03:50:00,55.8,55.2,29.77,WNW,286,0.0,0.0,98,0.00,,,0.00,Wunderground v.1.15,2013-09-25 07:50:00,
2013-09-25 04:00:00,55.9,55.3,29.77,WNW,286,0.0,0.0,98,0.00,,,0.00,Wunderground v.1.15,2013-09-25 08:00:00,
2013-09-25 04:10:00,55.8,55.5,29.78,WNW,286,0.0,0.0,99,0.00,,,0.00,Wunderground v.1.15,2013-09-25 08:10:00,
2013-09-25 04:20:00,55.8,55.5,29.77,WNW,286,0.0,0.0,99,0.00,,,0.00,Wunderground v.1.15,2013-09-25 08:20:00,
2013-09-25 04:30:00,55.8,55.5,29.77,WNW,286,0.0,0.0,99,0.00,,,0.00,Wunderground v.1.15,2013-09-25 08:30:00,
2013-09-25 04:40:00,55.6,55.3,29.77,WNW,286,0.0,0.0,99,0.00,,,0.00,Wunderground v.1.15,2013-09-25 08:40:00,
2013-09-25 04:50:00,55.5,55.2,29.77,WNW,286,0.0,0.0,99,0.00,,,0.00,Wunderground v.1.15,2013-09-25 08:50:00,
2013-09-25 05:00:00,55.5,55.2,29.77,WNW,286,0.0,0.0,99,0.00,,,0.00,Wunderground v.1.15,2013-09-25 09:00:00,
2013-09-25 05:10:00,55.4,55.1,29.77,WNW,286,0.0,0.0,99,0.00,,,0.00,Wunderground v.1.15,2013-09-25 09:10:00,
2013-09-25 05:20:00,55.5,55.2,29.77,WNW,286,0.0,0.0,99,0.00,,,0.00,Wunderground v.1.15,2013-09-25 09:20:00,
2013-09-25 05:30:00,55.4,55.1,29.77,WNW,286,0.0,0.0,99,0.00,,,0.00,Wunderground v.1.15,2013-09-25 09:30:00,
2013-09-25 05:40:00,55.3,55.0,29.77,WNW,286,0.0,0.0,99,0.00,,,0.00,Wunderground v.1.15,2013-09-25 09:40:00,
2013-09-25 05:50:00,55.5,55.2,29.78,WNW,286,0.0,0.0,99,0.00,,,0.00,Wunderground v.1.15,2013-09-25 09:50:00,
2013-09-25 06:00:00,55.4,55.1,29.79,WNW,286,0.0,0.0,99,0.00,,,0.00,Wunderground v.1.15,2013-09-25 10:00:00,
2013-09-25 06:10:00,55.4,55.1,29.79,WNW,286,0.0,0.0,99,0.00,,,0.00,Wunderground v.1.15,2013-09-25 10:10:00,
2013-09-25 06:20:00,55.5,55.2,29.79,WNW,286,0.0,0.0,99,0.00,,,0.00,Wunderground v.1.15,2013-09-25 10:20:00,
2013-09-25 06:30:00,55.3,55.0,29.80,WNW,286,0.0,0.0,99,0.00,,,0.00,Wunderground v.1.15,2013-09-25 10:30:00,
2013-09-25 06:40:00,54.9,54.6,29.79,WNW,286,0.0,0.0,99,0.00,,,0.00,Wunderground v.1.15,2013-09-25 10:40:00,
2013-09-25 06:50:00,54.4,54.1,29.79,WNW,286,0.0,0.0,99,0.00,,,0.00,Wunderground v.1.15,2013-09-25 10:50:00,
2013-09-25 07:00:00,54.2,53.9,29.79,WNW,286,0.0,0.0,99,0.00,,,0.00,Wunderground v.1.15,2013-09-25 11:00:00,
2013-09-25 07:10:00,54.1,53.8,29.79,WNW,286,0.0,0.0,99,0.00,,,0.00,Wunderground v.1.15,2013-09-25 11:10:00,
2013-09-25 07:20:00,54.0,53.7,29.79,WNW,286,0.0,0.0,99,0.00,,,0.00,Wunderground v.1.15,2013-09-25 11:20:00,
2013-09-25 07:30:00,53.9,53.6,29.79,WNW,286,0.0,0.0,99,0.00,,,0.00,Wunderground v.1.15,2013-09-25 11:30:00,
2013-09-25 07:40:00,53.9,53.6,29.79,WNW,286,0.0,0.0,99,0.00,,,0.00,Wunderground v.1.15,2013-09-25 11:40:00,
2013-09-25 07:50:00,54.2,53.9,29.79,WNW,286,0.0,0.0,99,0.00,,,0.00,Wunderground v.1.15,2013-09-25 11:50:00,
2013-09-25 08:00:00,54.6,54.3,29.79,WNW,286,0.0,0.0,99,0.00,,,0.00,Wunderground v.1.15,2013-09-25 12:00:00,
2013-09-25 08:10:00,55.1,55.1,29.79,WNW,286,0.0,0.0,100,0.00,,,0.00,Wunderground v.1.15,2013-09-25 12:10:00,
2013-09-25 08:20:00,55.7,55.7,29.79,WNW,286,0.0,0.0,100,0.00,,,0.00,Wunderground v.1.15,2013-09-25 12:20:00,
2013-09-25 08:30:00,55.9,55.9,29.80,WNW,286,0.0,0.0,100,0.00,,,0.00,Wunderground v.1.15,2013-09-25 12:30:00,
2013-09-25 08:40:00,56.2,56.2,29.79,WNW,286,0.0,0.0,100,0.00,,,0.00,Wunderground v.1.15,2013-09-25 12:40:00,
2013-09-25 08:50:00,56.5,56.5,29.79,WNW,286,0.0,0.0,100,0.00,,,0.00,Wunderground v.1.15,2013-09-25 12:50:00,
2013-09-25 09:00:00,56.6,56.6,29.79,WNW,286,0.0,0.0,100,0.00,,,0.00,Wunderground v.1.15,2013-09-25 13:00:00,
2013-09-25 09:10:00,56.7,56.7,29.79,WNW,286,0.0,0.0,100,0.00,,,0.00,Wunderground v.1.15,2013-09-25 13:10:00,
2013-09-25 09:20:00,56.9,56.9,29.79,WNW,286,0.0,0.0,100,0.00,,,0.00,Wunderground v.1.15,2013-09-25 13:20:00,
2013-09-25 09:30:00,57.2,57.2,29.79,WNW,286,0.0,0.0,100,0.00,,,0.00,Wunderground v.1.15,2013-09-25 13:30:00,
2013-09-25 09:40:00,58.2,58.2,29.79,WNW,286,0.0,0.0,100,0.00,,,0.00,Wunderground v.1.15,2013-09-25 13:40:00,
2013-09-25 09:50:00,59.0,59.0,29.78,WNW,286,0.0,0.0,100,0.00,,,0.00,Wunderground v.1.15,2013-09-25 13:50:00,
2013-09-25 10:00:00,59.0,59.0,29.78,WNW,286,0.0,0.0,100,0.00,,,0.00,Wunderground v.1.15,2013-09-25 14:00:00,
2013-09-25 10:10:00,59.5,59.5,29.78,WNW,286,0.0,0.0,100,0.00,,,0.00,Wunderground v.1.15,2013-09-25 14:10:00,
2013-09-25 10:20:00,60.2,60.2,29.78,WNW,286,0.0,0.0,100,0.00,,,0.00,Wunderground v.1.15,2013-09-25 14:20:00,
2013-09-25 10:30:00,60.4,60.1,29.79,WNW,286,0.0,1.0,99,0.00,,,0.00,Wunderground v.1.15,2013-09-25 14:30:00,
2013-09-25 10:40:00,60.9,60.3,29.80,WNW,286,0.0,0.0,98,0.00,,,0.00,Wunderground v.1.15,2013-09-25 14:40:00,
2013-09-25 10:50:00,60.9,60.0,29.79,WNW,286,0.0,0.0,97,0.00,,,0.00,Wunderground v.1.15,2013-09-25 14:50:00,
2013-09-25 11:00:00,60.8,59.7,29.79,WNW,286,0.0,0.0,96,0.00,,,0.00,Wunderground v.1.15,2013-09-25 15:00:00,
2013-09-25 11:10:00,61.4,60.2,29.79,WNW,286,0.0,0.0,96,0.00,,,0.00,Wunderground v.1.15,2013-09-25 15:10:00,
2013-09-25 11:20:00,62.5,60.7,29.79,WNW,286,0.0,0.0,94,0.00,,,0.00,Wunderground v.1.15,2013-09-25 15:20:00,
2013-09-25 11:30:00,63.4,61.3,29.79,WNW,286,0.0,0.0,93,0.00,,,0.00,Wunderground v.1.15,2013-09-25 15:30:00,
2013-09-25 11:40:00,63.9,60.9,29.79,WNW,286,0.0,0.0,90,0.00,,,0.00,Wunderground v.1.15,2013-09-25 15:40:00,
2013-09-25 11:50:00,64.0,60.4,29.79,WNW,286,0.0,0.0,88,0.00,,,0.00,Wunderground v.1.15,2013-09-25 15:50:00,
2013-09-25 12:00:00,64.1,60.2,29.79,WNW,286,0.0,0.0,87,0.00,,,0.00,Wunderground v.1.15,2013-09-25 16:00:00,
2013-09-25 12:10:00,64.0,60.1,29.79,WNW,286,0.0,0.0,87,0.00,,,0.00,Wunderground v.1.15,2013-09-25 16:10:00,
2013-09-25 12:20:00,64.1,60.2,29.79,WNW,286,0.0,0.0,87,0.00,,,0.00,Wunderground v.1.15,2013-09-25 16:20:00,
2013-09-25 12:30:00,64.2,60.2,29.79,WNW,286,0.0,0.0,87,0.00,,,0.00,Wunderground v.1.15,2013-09-25 16:30:00,
2013-09-25 12:40:00,64.5,60.5,29.79,WNW,286,0.0,0.0,87,0.00,,,0.00,Wunderground v.1.15,2013-09-25 16:40:00,
2013-09-25 12:50:00,64.7,60.4,29.78,WNW,286,0.0,0.0,86,0.00,,,0.00,Wunderground v.1.15,2013-09-25 16:50:00,
2013-09-25 13:00:00,64.7,60.4,29.78,WNW,286,0.0,0.0,86,0.00,,,0.00,Wunderground v.1.15,2013-09-25 17:00:00,
2013-09-25 13:10:00,64.5,60.2,29.78,WNW,286,0.0,0.0,86,0.00,,,0.00,Wunderground v.1.15,2013-09-25 17:10:00,
2013-09-25 13:20:00,64.6,60.3,29.78,WNW,286,0.0,0.0,86,0.00,,,0.00,Wunderground v.1.15,2013-09-25 17:20:00,
2013-09-25 13:30:00,64.7,60.7,29.78,WNW,286,0.0,0.0,87,0.00,,,0.00,Wunderground v.1.15,2013-09-25 17:30:00,
2013-09-25 13:40:00,64.9,60.3,29.77,WNW,286,0.0,0.0,85,0.00,,,0.00,Wunderground v.1.15,2013-09-25 17:40:00,
2013-09-25 13:50:00,65.5,60.9,29.77,West,273,0.0,0.0,85,0.00,,,0.00,Wunderground v.1.15,2013-09-25 17:50:00,
2013-09-25 14:00:00,66.0,60.7,29.77,West,272,0.0,0.0,83,0.00,,,0.00,Wunderground v.1.15,2013-09-25 18:00:00,
2013-09-25 14:10:00,66.1,60.1,29.76,West,272,0.0,0.0,81,0.00,,,0.00,Wunderground v.1.15,2013-09-25 18:10:00,
2013-09-25 14:20:00,66.0,58.9,29.76,West,272,0.0,0.0,78,0.00,,,0.00,Wunderground v.1.15,2013-09-25 18:20:00,
2013-09-25 14:30:00,66.0,59.7,29.76,West,272,0.0,0.0,80,0.00,,,0.00,Wunderground v.1.15,2013-09-25 18:30:00,
2013-09-25 14:40:00,65.9,59.9,29.76,West,272,0.0,0.0,81,0.00,,,0.00,Wunderground v.1.15,2013-09-25 18:40:00,
2013-09-25 14:50:00,65.8,59.8,29.76,West,273,0.0,0.0,81,0.00,,,0.00,Wunderground v.1.15,2013-09-25 18:50:00,
2013-09-25 15:00:00,65.6,60.0,29.76,West,272,0.0,0.0,82,0.00,,,0.00,Wunderground v.1.15,2013-09-25 19:00:00,
2013-09-25 15:10:00,65.4,59.8,29.75,West,272,0.0,0.0,82,0.00,,,0.00,Wunderground v.1.15,2013-09-25 19:10:00,
2013-09-25 15:20:00,65.2,59.6,29.75,West,273,0.0,0.0,82,0.00,,,0.00,Wunderground v.1.15,2013-09-25 19:20:00,
2013-09-25 15:30:00,65.0,59.4,29.75,West,272,0.0,0.0,82,0.00,,,0.00,Wunderground v.1.15,2013-09-25 19:30:00,
2013-09-25 15:40:00,64.8,59.2,29.75,West,272,0.0,0.0,82,0.00,,,0.00,Wunderground v.1.15,2013-09-25 19:40:00,
2013-09-25 15:50:00,64.7,59.4,29.75,West,273,0.0,0.0,83,0.00,,,0.00,Wunderground v.1.15,2013-09-25 19:50:00,
2013-09-25 16:00:00,64.5,59.6,29.75,West,272,0.0,0.0,84,0.00,,,0.00,Wunderground v.1.15,2013-09-25 20:00:00,
2013-09-25 16:10:00,64.4,59.8,29.75,West,272,0.0,0.0,85,0.00,,,0.00,Wunderground v.1.15,2013-09-25 20:10:00,
2013-09-25 16:20:00,64.1,59.5,29.75,West,272,0.0,0.0,85,0.00,,,0.00,Wunderground v.1.15,2013-09-25 20:20:00,
2013-09-25 16:30:00,63.9,59.6,29.75,West,273,0.0,0.0,86,0.00,,,0.00,Wunderground v.1.15,2013-09-25 20:30:00,
2013-09-25 16:40:00,63.6,59.7,29.75,West,272,0.0,0.0,87,0.00,,,0.01,Wunderground v.1.15,2013-09-25 20:40:00,
2013-09-25 16:50:00,63.2,59.6,29.75,West,273,0.0,0.0,88,0.00,,,0.01,Wunderground v.1.15,2013-09-25 20:50:00,
2013-09-25 17:00:00,63.0,59.7,29.75,West,273,0.0,0.0,89,0.00,,,0.02,Wunderground v.1.15,2013-09-25 21:00:00,
2013-09-25 17:10:00,62.7,59.7,29.75,West,272,0.0,0.0,90,0.00,,,0.02,Wunderground v.1.15,2013-09-25 21:10:00,
2013-09-25 17:20:00,62.6,59.9,29.75,West,272,0.0,0.0,91,0.00,,,0.02,Wunderground v.1.15,2013-09-25 21:20:00,
2013-09-25 17:30:00,62.4,59.7,29.75,West,273,0.0,0.0,91,0.00,,,0.02,Wunderground v.1.15,2013-09-25 21:30:00,
2013-09-25 17:40:00,62.1,59.7,29.75,West,272,0.0,0.0,92,0.00,,,0.02,Wunderground v.1.15,2013-09-25 21:40:00,
2013-09-25 17:50:00,61.9,59.5,29.75,West,272,0.0,0.0,92,0.00,,,0.02,Wunderground v.1.15,2013-09-25 21:50:00,
2013-09-25 18:00:00,61.7,59.7,29.75,West,273,0.0,0.0,93,0.00,,,0.02,Wunderground v.1.15,2013-09-25 22:00:00,
2013-09-25 18:10:00,61.5,59.5,29.75,West,273,0.0,0.0,93,0.00,,,0.02,Wunderground v.1.15,2013-09-25 22:10:00,
2013-09-25 18:20:00,61.2,59.2,29.75,West,273,0.0,0.0,93,0.00,,,0.02,Wunderground v.1.15,2013-09-25 22:20:00,
2013-09-25 18:30:00,60.8,59.1,29.74,West,273,0.0,0.0,94,0.00,,,0.02,Wunderground v.1.15,2013-09-25 22:30:00,
2013-09-25 18:40:00,60.6,58.9,29.74,West,273,0.0,0.0,94,0.00,,,0.02,Wunderground v.1.15,2013-09-25 22:40:00,
2013-09-25 18:50:00,60.5,59.1,29.74,West,273,0.0,0.0,95,0.00,,,0.02,Wunderground v.1.15,2013-09-25 22:50:00,
2013-09-25 19:00:00,60.2,58.8,29.75,West,273,0.0,0.0,95,0.00,,,0.02,Wunderground v.1.15,2013-09-25 23:00:00,
2013-09-25 19:10:00,60.0,58.6,29.76,West,273,0.0,0.0,95,0.00,,,0.02,Wunderground v.1.15,2013-09-25 23:10:00,
2013-09-25 19:20:00,59.8,58.7,29.77,West,273,0.0,0.0,96,0.00,,,0.02,Wunderground v.1.15,2013-09-25 23:20:00,
2013-09-25 19:30:00,59.6,58.5,29.77,West,273,0.0,0.0,96,0.00,,,0.02,Wunderground v.1.15,2013-09-25 23:30:00,
2013-09-25 19:40:00,59.4,58.3,29.77,West,273,0.0,0.0,96,0.00,,,0.02,Wunderground v.1.15,2013-09-25 23:40:00,
2013-09-25 19:50:00,59.4,58.3,29.76,West,273,0.0,0.0,96,0.00,,,0.02,Wunderground v.1.15,2013-09-25 23:50:00,
2013-09-25 20:00:00,59.3,58.4,29.77,West,273,0.0,0.0,97,0.00,,,0.02,Wunderground v.1.15,2013-09-26 00:00:00,
2013-09-25 20:10:00,59.1,58.2,29.77,West,273,0.0,0.0,97,0.00,,,0.02,Wunderground v.1.15,2013-09-26 00:10:00,
2013-09-25 20:20:00,59.0,58.2,29.77,West,273,0.0,0.0,97,0.00,,,0.02,Wunderground v.1.15,2013-09-26 00:20:00,
2013-09-25 20:30:00,59.0,58.2,29.77,West,273,0.0,0.0,97,0.00,,,0.02,Wunderground v.1.15,2013-09-26 00:30:00,
2013-09-25 20:40:00,59.0,58.2,29.77,West,273,0.0,0.0,97,0.00,,,0.02,Wunderground v.1.15,2013-09-26 00:40:00,
2013-09-25 20:50:00,59.0,58.2,29.77,West,273,0.0,0.0,97,0.00,,,0.02,Wunderground v.1.15,2013-09-26 00:50:00,
2013-09-25 21:00:00,59.0,58.2,29.78,West,273,0.0,0.0,97,0.00,,,0.02,Wunderground v.1.15,2013-09-26 01:00:00,
2013-09-25 21:10:00,59.0,58.2,29.78,West,273,0.0,0.0,97,0.00,,,0.02,Wunderground v.1.15,2013-09-26 01:10:00,
2013-09-25 21:20:00,58.8,58.0,29.78,West,273,0.0,0.0,97,0.00,,,0.02,Wunderground v.1.15,2013-09-26 01:20:00,
2013-09-25 21:30:00,58.8,58.0,29.78,West,272,0.0,0.0,97,0.00,,,0.02,Wunderground v.1.15,2013-09-26 01:30:00,
2013-09-25 21:40:00,58.7,57.9,29.78,West,273,0.0,0.0,97,0.00,,,0.02,Wunderground v.1.15,2013-09-26 01:40:00,
2013-09-25 21:50:00,58.6,58.0,29.78,West,273,0.0,0.0,98,0.00,,,0.02,Wunderground v.1.15,2013-09-26 01:50:00,
2013-09-25 22:00:00,58.5,57.9,29.78,West,272,0.0,0.0,98,0.00,,,0.02,Wunderground v.1.15,2013-09-26 02:00:00,
2013-09-25 22:10:00,58.4,57.8,29.78,West,273,0.0,0.0,98,0.00,,,0.02,Wunderground v.1.15,2013-09-26 02:10:00,
2013-09-25 22:20:00,58.2,57.6,29.78,West,273,0.0,0.0,98,0.00,,,0.02,Wunderground v.1.15,2013-09-26 02:20:00,
2013-09-25 22:30:00,58.2,57.6,29.78,West,272,0.0,0.0,98,0.00,,,0.02,Wunderground v.1.15,2013-09-26 02:30:00,
2013-09-25 22:40:00,58.1,57.5,29.79,West,273,0.0,0.0,98,0.00,,,0.02,Wunderground v.1.15,2013-09-26 02:40:00,
2013-09-25 22:50:00,58.1,57.5,29.79,West,273,0.0,0.0,98,0.00,,,0.02,Wunderground v.1.15,2013-09-26 02:50:00,
2013-09-25 23:00:00,58.1,57.5,29.79,West,272,0.0,0.0,98,0.00,,,0.02,Wunderground v.1.15,2013-09-26 03:00:00,
2013-09-25 23:10:00,58.1,57.5,29.79,West,273,0.0,0.0,98,0.00,,,0.02,Wunderground v.1.15,2013-09-26 03:10:00,
2013-09-25 23:20:00,58.0,57.4,29.79,West,273,0.0,0.0,98,0.00,,,0.02,Wunderground v.1.15,2013-09-26 03:20:00,
2013-09-25 23:30:00,58.0,57.4,29.79,West,273,0.0,0.0,98,0.00,,,0.02,Wunderground v.1.15,2013-09-26 03:30:00,
2013-09-25 23:40:00,57.9,57.3,29.79,West,273,0.0,0.0,98,0.00,,,0.02,Wunderground v.1.15,2013-09-26 03:40:00,
2013-09-25 23:50:00,57.8,57.2,29.79,West,273,0.0,0.0,98,0.00,,,0.02,Wunderground v.1.15,2013-09-26 03:50:00,